sensor_id;sensor_type;location;lat;lon;timestamp;P1;durP1;ratioP1;P2;durP2;ratioP2
63201;SDS011;49296;48.188;11.566;2023-01-19T00:00:01;19.55;;;10.55;;
63201;SDS011;49296;48.188;11.566;2023-01-19T00:02:29;20.35;;;10.85;;
63201;SDS011;49296;48.188;11.566;2023-01-19T00:04:56;24.02;;;11.30;;
63201;SDS011;49296;48.188;11.566;2023-01-19T00:07:23;19.77;;;10.77;;
63201;SDS011;49296;48.188;11.566;2023-01-19T00:09:50;19.15;;;11.55;;
63201;SDS011;49296;48.188;11.566;2023-01-19T00:12:19;22.88;;;11.32;;
63201;SDS011;49296;48.188;11.566;2023-01-19T00:14:45;24.05;;;11.38;;
63201;SDS011;49296;48.188;11.566;2023-01-19T00:17:12;21.45;;;11.35;;
63201;SDS011;49296;48.188;11.566;2023-01-19T00:19:39;22.60;;;11.63;;
63201;SDS011;49296;48.188;11.566;2023-01-19T00:22:06;21.30;;;11.65;;
63201;SDS011;49296;48.188;11.566;2023-01-19T00:24:33;20.77;;;11.32;;
63201;SDS011;49296;48.188;11.566;2023-01-19T00:27:00;20.40;;;10.82;;
63201;SDS011;49296;48.188;11.566;2023-01-19T00:29:29;20.05;;;10.25;;
63201;SDS011;49296;48.188;11.566;2023-01-19T00:32:00;18.70;;;10.27;;
63201;SDS011;49296;48.188;11.566;2023-01-19T00:34:27;18.50;;;9.85;;
63201;SDS011;49296;48.188;11.566;2023-01-19T00:37:03;18.38;;;10.18;;
63201;SDS011;49296;48.188;11.566;2023-01-19T00:39:30;18.73;;;10.60;;
63201;SDS011;49296;48.188;11.566;2023-01-19T00:41:57;18.25;;;9.82;;
63201;SDS011;49296;48.188;11.566;2023-01-19T00:44:42;21.58;;;10.32;;
63201;SDS011;49296;48.188;11.566;2023-01-19T00:47:09;19.33;;;9.90;;
63201;SDS011;49296;48.188;11.566;2023-01-19T00:49:36;18.42;;;9.57;;
63201;SDS011;49296;48.188;11.566;2023-01-19T00:52:06;17.75;;;9.05;;
63201;SDS011;49296;48.188;11.566;2023-01-19T00:54:33;20.10;;;9.95;;
63201;SDS011;49296;48.188;11.566;2023-01-19T00:57:00;18.02;;;10.65;;
63201;SDS011;49296;48.188;11.566;2023-01-19T00:59:27;17.35;;;10.05;;
63201;SDS011;49296;48.188;11.566;2023-01-19T01:01:55;19.50;;;10.38;;
63201;SDS011;49296;48.188;11.566;2023-01-19T01:04:22;19.15;;;10.30;;
63201;SDS011;49296;48.188;11.566;2023-01-19T01:06:49;18.70;;;9.90;;
63201;SDS011;49296;48.188;11.566;2023-01-19T01:09:16;22.02;;;11.05;;
63201;SDS011;49296;48.188;11.566;2023-01-19T01:11:43;18.95;;;9.85;;
63201;SDS011;49296;48.188;11.566;2023-01-19T01:14:10;21.48;;;11.15;;
63201;SDS011;49296;48.188;11.566;2023-01-19T01:16:37;19.75;;;10.35;;
63201;SDS011;49296;48.188;11.566;2023-01-19T01:19:06;17.05;;;9.15;;
63201;SDS011;49296;48.188;11.566;2023-01-19T01:21:34;18.33;;;10.10;;
63201;SDS011;49296;48.188;11.566;2023-01-19T01:24:01;18.70;;;10.23;;
63201;SDS011;49296;48.188;11.566;2023-01-19T01:26:28;15.90;;;9.98;;
63201;SDS011;49296;48.188;11.566;2023-01-19T01:28:55;19.88;;;9.05;;
63201;SDS011;49296;48.188;11.566;2023-01-19T01:31:22;16.05;;;8.55;;
63201;SDS011;49296;48.188;11.566;2023-01-19T01:33:48;15.55;;;8.27;;
63201;SDS011;49296;48.188;11.566;2023-01-19T01:36:17;16.98;;;9.18;;
63201;SDS011;49296;48.188;11.566;2023-01-19T01:38:44;15.65;;;8.93;;
63201;SDS011;49296;48.188;11.566;2023-01-19T01:41:11;14.88;;;8.75;;
63201;SDS011;49296;48.188;11.566;2023-01-19T01:43:42;15.57;;;9.13;;
63201;SDS011;49296;48.188;11.566;2023-01-19T01:46:11;16.65;;;9.23;;
63201;SDS011;49296;48.188;11.566;2023-01-19T01:48:41;15.43;;;9.45;;
63201;SDS011;49296;48.188;11.566;2023-01-19T01:51:12;19.40;;;9.45;;
63201;SDS011;49296;48.188;11.566;2023-01-19T01:53:56;16.83;;;9.52;;
63201;SDS011;49296;48.188;11.566;2023-01-19T01:56:30;17.35;;;8.57;;
63201;SDS011;49296;48.188;11.566;2023-01-19T01:59:00;16.73;;;8.20;;
63201;SDS011;49296;48.188;11.566;2023-01-19T02:01:30;15.10;;;8.95;;
63201;SDS011;49296;48.188;11.566;2023-01-19T02:04:14;16.95;;;9.02;;
63201;SDS011;49296;48.188;11.566;2023-01-19T02:06:41;16.90;;;9.57;;
63201;SDS011;49296;48.188;11.566;2023-01-19T02:09:27;16.50;;;9.32;;
63201;SDS011;49296;48.188;11.566;2023-01-19T02:12:15;16.27;;;9.18;;
63201;SDS011;49296;48.188;11.566;2023-01-19T02:15:00;16.27;;;8.95;;
63201;SDS011;49296;48.188;11.566;2023-01-19T02:17:27;15.85;;;9.20;;
63201;SDS011;49296;48.188;11.566;2023-01-19T02:19:54;16.83;;;8.38;;
63201;SDS011;49296;48.188;11.566;2023-01-19T02:22:23;17.73;;;8.90;;
63201;SDS011;49296;48.188;11.566;2023-01-19T02:24:55;14.13;;;8.25;;
63201;SDS011;49296;48.188;11.566;2023-01-19T02:27:22;15.57;;;8.00;;
63201;SDS011;49296;48.188;11.566;2023-01-19T02:29:49;13.30;;;7.75;;
63201;SDS011;49296;48.188;11.566;2023-01-19T02:32:17;14.45;;;8.60;;
63201;SDS011;49296;48.188;11.566;2023-01-19T02:34:44;14.30;;;8.82;;
63201;SDS011;49296;48.188;11.566;2023-01-19T02:37:11;14.88;;;8.93;;
63201;SDS011;49296;48.188;11.566;2023-01-19T02:39:41;16.45;;;8.93;;
63201;SDS011;49296;48.188;11.566;2023-01-19T02:42:12;15.60;;;8.13;;
63201;SDS011;49296;48.188;11.566;2023-01-19T02:44:42;11.35;;;7.45;;
63201;SDS011;49296;48.188;11.566;2023-01-19T02:47:12;13.50;;;7.68;;
63201;SDS011;49296;48.188;11.566;2023-01-19T02:49:39;12.65;;;7.15;;
63201;SDS011;49296;48.188;11.566;2023-01-19T02:52:07;12.15;;;7.68;;
63201;SDS011;49296;48.188;11.566;2023-01-19T02:54:45;13.52;;;7.07;;
63201;SDS011;49296;48.188;11.566;2023-01-19T02:57:27;12.25;;;7.72;;
63201;SDS011;49296;48.188;11.566;2023-01-19T03:00:24;13.25;;;7.65;;
63201;SDS011;49296;48.188;11.566;2023-01-19T03:03:05;14.13;;;7.75;;
63201;SDS011;49296;48.188;11.566;2023-01-19T03:05:49;15.40;;;8.73;;
63201;SDS011;49296;48.188;11.566;2023-01-19T03:08:23;12.32;;;7.68;;
63201;SDS011;49296;48.188;11.566;2023-01-19T03:10:59;13.57;;;7.57;;
63201;SDS011;49296;48.188;11.566;2023-01-19T03:13:31;17.63;;;8.37;;
63201;SDS011;49296;48.188;11.566;2023-01-19T03:16:05;12.57;;;8.10;;
63201;SDS011;49296;48.188;11.566;2023-01-19T03:18:37;14.95;;;8.55;;
63201;SDS011;49296;48.188;11.566;2023-01-19T03:23:35;15.27;;;8.68;;
63201;SDS011;49296;48.188;11.566;2023-01-19T03:28:36;15.02;;;8.90;;
63201;SDS011;49296;48.188;11.566;2023-01-19T03:31:10;16.67;;;9.27;;
63201;SDS011;49296;48.188;11.566;2023-01-19T03:33:41;16.05;;;10.30;;
63201;SDS011;49296;48.188;11.566;2023-01-19T03:36:13;18.67;;;10.10;;
63201;SDS011;49296;48.188;11.566;2023-01-19T03:38:43;18.85;;;10.60;;
63201;SDS011;49296;48.188;11.566;2023-01-19T03:41:13;20.13;;;11.40;;
63201;SDS011;49296;48.188;11.566;2023-01-19T03:43:43;15.43;;;10.10;;
63201;SDS011;49296;48.188;11.566;2023-01-19T03:48:41;18.90;;;9.88;;
63201;SDS011;49296;48.188;11.566;2023-01-19T03:51:08;17.55;;;10.68;;
63201;SDS011;49296;48.188;11.566;2023-01-19T03:53:36;19.65;;;10.88;;
63201;SDS011;49296;48.188;11.566;2023-01-19T03:56:03;18.20;;;10.60;;
63201;SDS011;49296;48.188;11.566;2023-01-19T03:58:31;20.08;;;10.73;;
63201;SDS011;49296;48.188;11.566;2023-01-19T04:00:59;18.20;;;10.93;;
63201;SDS011;49296;48.188;11.566;2023-01-19T04:03:28;15.80;;;10.00;;
63201;SDS011;49296;48.188;11.566;2023-01-19T04:05:55;19.33;;;11.27;;
63201;SDS011;49296;48.188;11.566;2023-01-19T04:08:22;18.80;;;11.07;;
63201;SDS011;49296;48.188;11.566;2023-01-19T04:10:48;17.63;;;11.77;;
63201;SDS011;49296;48.188;11.566;2023-01-19T04:13:15;18.33;;;10.43;;
63201;SDS011;49296;48.188;11.566;2023-01-19T04:15:42;17.85;;;11.68;;
63201;SDS011;49296;48.188;11.566;2023-01-19T04:18:10;16.90;;;10.77;;
63201;SDS011;49296;48.188;11.566;2023-01-19T04:20:37;16.05;;;10.68;;
63201;SDS011;49296;48.188;11.566;2023-01-19T04:23:04;18.35;;;11.35;;
63201;SDS011;49296;48.188;11.566;2023-01-19T04:25:31;18.25;;;11.10;;
63201;SDS011;49296;48.188;11.566;2023-01-19T04:27:58;20.48;;;11.35;;
63201;SDS011;49296;48.188;11.566;2023-01-19T04:30:24;20.10;;;11.80;;
63201;SDS011;49296;48.188;11.566;2023-01-19T04:32:52;19.05;;;11.82;;
63201;SDS011;49296;48.188;11.566;2023-01-19T04:35:21;20.02;;;11.80;;
63201;SDS011;49296;48.188;11.566;2023-01-19T04:37:47;17.88;;;10.63;;
63201;SDS011;49296;48.188;11.566;2023-01-19T04:40:14;19.30;;;11.15;;
63201;SDS011;49296;48.188;11.566;2023-01-19T04:42:42;18.75;;;11.55;;
63201;SDS011;49296;48.188;11.566;2023-01-19T04:45:10;18.38;;;11.73;;
63201;SDS011;49296;48.188;11.566;2023-01-19T04:47:37;20.67;;;10.95;;
63201;SDS011;49296;48.188;11.566;2023-01-19T04:50:07;19.42;;;11.85;;
63201;SDS011;49296;48.188;11.566;2023-01-19T04:52:37;20.75;;;11.75;;
63201;SDS011;49296;48.188;11.566;2023-01-19T04:55:04;19.52;;;12.00;;
63201;SDS011;49296;48.188;11.566;2023-01-19T04:57:32;18.05;;;11.27;;
63201;SDS011;49296;48.188;11.566;2023-01-19T04:59:59;18.80;;;11.43;;
63201;SDS011;49296;48.188;11.566;2023-01-19T05:02:25;18.33;;;11.25;;
63201;SDS011;49296;48.188;11.566;2023-01-19T05:04:52;16.58;;;10.82;;
63201;SDS011;49296;48.188;11.566;2023-01-19T05:07:19;16.48;;;10.85;;
63201;SDS011;49296;48.188;11.566;2023-01-19T05:09:48;18.65;;;11.80;;
63201;SDS011;49296;48.188;11.566;2023-01-19T05:12:14;19.02;;;11.25;;
63201;SDS011;49296;48.188;11.566;2023-01-19T05:14:41;16.45;;;10.52;;
63201;SDS011;49296;48.188;11.566;2023-01-19T05:17:08;19.15;;;11.48;;
63201;SDS011;49296;48.188;11.566;2023-01-19T05:19:35;17.08;;;10.75;;
63201;SDS011;49296;48.188;11.566;2023-01-19T05:22:03;16.52;;;11.48;;
63201;SDS011;49296;48.188;11.566;2023-01-19T05:24:30;16.15;;;10.45;;
63201;SDS011;49296;48.188;11.566;2023-01-19T05:26:58;20.48;;;11.25;;
63201;SDS011;49296;48.188;11.566;2023-01-19T05:29:25;18.17;;;10.80;;
63201;SDS011;49296;48.188;11.566;2023-01-19T05:31:52;15.95;;;9.95;;
63201;SDS011;49296;48.188;11.566;2023-01-19T05:34:19;20.65;;;11.30;;
63201;SDS011;49296;48.188;11.566;2023-01-19T05:36:46;21.70;;;11.55;;
63201;SDS011;49296;48.188;11.566;2023-01-19T05:39:13;21.52;;;11.70;;
63201;SDS011;49296;48.188;11.566;2023-01-19T05:41:40;20.27;;;11.85;;
63201;SDS011;49296;48.188;11.566;2023-01-19T05:44:10;19.95;;;11.88;;
63201;SDS011;49296;48.188;11.566;2023-01-19T05:46:37;21.27;;;11.30;;
63201;SDS011;49296;48.188;11.566;2023-01-19T05:49:04;19.02;;;10.38;;
63201;SDS011;49296;48.188;11.566;2023-01-19T05:51:31;20.02;;;11.07;;
63201;SDS011;49296;48.188;11.566;2023-01-19T05:54:02;18.80;;;10.85;;
63201;SDS011;49296;48.188;11.566;2023-01-19T05:56:29;20.30;;;11.20;;
63201;SDS011;49296;48.188;11.566;2023-01-19T05:58:57;20.67;;;11.75;;
63201;SDS011;49296;48.188;11.566;2023-01-19T06:01:25;21.38;;;11.45;;
63201;SDS011;49296;48.188;11.566;2023-01-19T06:03:53;21.92;;;11.98;;
63201;SDS011;49296;48.188;11.566;2023-01-19T06:06:20;19.52;;;12.00;;
63201;SDS011;49296;48.188;11.566;2023-01-19T06:08:46;24.23;;;12.10;;
63201;SDS011;49296;48.188;11.566;2023-01-19T06:11:13;21.65;;;13.65;;
63201;SDS011;49296;48.188;11.566;2023-01-19T06:13:40;23.95;;;13.88;;
63201;SDS011;49296;48.188;11.566;2023-01-19T06:16:07;24.73;;;13.23;;
63201;SDS011;49296;48.188;11.566;2023-01-19T06:18:36;20.48;;;12.80;;
63201;SDS011;49296;48.188;11.566;2023-01-19T06:21:03;24.15;;;12.65;;
63201;SDS011;49296;48.188;11.566;2023-01-19T06:23:31;22.02;;;12.38;;
63201;SDS011;49296;48.188;11.566;2023-01-19T06:25:59;21.20;;;11.02;;
63201;SDS011;49296;48.188;11.566;2023-01-19T06:28:26;21.60;;;12.52;;
63201;SDS011;49296;48.188;11.566;2023-01-19T06:30:53;21.90;;;12.23;;
63201;SDS011;49296;48.188;11.566;2023-01-19T06:33:21;19.95;;;11.88;;
63201;SDS011;49296;48.188;11.566;2023-01-19T06:35:50;22.90;;;13.40;;
63201;SDS011;49296;48.188;11.566;2023-01-19T06:38:17;22.92;;;12.52;;
63201;SDS011;49296;48.188;11.566;2023-01-19T06:40:50;23.70;;;12.23;;
63201;SDS011;49296;48.188;11.566;2023-01-19T06:43:17;20.48;;;11.75;;
63201;SDS011;49296;48.188;11.566;2023-01-19T06:45:45;25.00;;;13.02;;
63201;SDS011;49296;48.188;11.566;2023-01-19T06:48:12;23.90;;;12.73;;
63201;SDS011;49296;48.188;11.566;2023-01-19T06:50:39;23.08;;;12.75;;
63201;SDS011;49296;48.188;11.566;2023-01-19T06:53:07;23.05;;;13.05;;
63201;SDS011;49296;48.188;11.566;2023-01-19T06:55:34;21.73;;;11.95;;
63201;SDS011;49296;48.188;11.566;2023-01-19T06:58:01;23.08;;;12.07;;
63201;SDS011;49296;48.188;11.566;2023-01-19T07:00:27;21.75;;;11.77;;
63201;SDS011;49296;48.188;11.566;2023-01-19T07:02:54;23.95;;;13.10;;
63201;SDS011;49296;48.188;11.566;2023-01-19T07:05:21;23.42;;;12.90;;
63201;SDS011;49296;48.188;11.566;2023-01-19T07:07:51;22.90;;;11.90;;
63201;SDS011;49296;48.188;11.566;2023-01-19T07:10:19;21.98;;;12.60;;
63201;SDS011;49296;48.188;11.566;2023-01-19T07:12:47;24.08;;;13.52;;
63201;SDS011;49296;48.188;11.566;2023-01-19T07:15:14;24.95;;;13.43;;
63201;SDS011;49296;48.188;11.566;2023-01-19T07:17:41;21.25;;;12.48;;
63201;SDS011;49296;48.188;11.566;2023-01-19T07:20:08;20.75;;;12.25;;
63201;SDS011;49296;48.188;11.566;2023-01-19T07:22:38;22.67;;;11.93;;
63201;SDS011;49296;48.188;11.566;2023-01-19T07:25:05;21.55;;;12.13;;
63201;SDS011;49296;48.188;11.566;2023-01-19T07:27:34;21.38;;;12.38;;
63201;SDS011;49296;48.188;11.566;2023-01-19T07:30:01;23.08;;;13.13;;
63201;SDS011;49296;48.188;11.566;2023-01-19T07:32:28;24.35;;;12.10;;
63201;SDS011;49296;48.188;11.566;2023-01-19T07:34:55;26.23;;;12.27;;
63201;SDS011;49296;48.188;11.566;2023-01-19T07:37:23;23.15;;;12.40;;
63201;SDS011;49296;48.188;11.566;2023-01-19T07:39:50;21.67;;;11.82;;
63201;SDS011;49296;48.188;11.566;2023-01-19T07:42:17;20.83;;;11.88;;
63201;SDS011;49296;48.188;11.566;2023-01-19T07:44:45;25.02;;;12.68;;
63201;SDS011;49296;48.188;11.566;2023-01-19T07:47:12;21.08;;;12.40;;
63201;SDS011;49296;48.188;11.566;2023-01-19T07:49:39;22.13;;;12.30;;
63201;SDS011;49296;48.188;11.566;2023-01-19T07:52:06;21.58;;;11.77;;
63201;SDS011;49296;48.188;11.566;2023-01-19T07:54:33;17.80;;;10.43;;
63201;SDS011;49296;48.188;11.566;2023-01-19T07:56:59;21.38;;;11.52;;
63201;SDS011;49296;48.188;11.566;2023-01-19T07:59:27;18.33;;;10.65;;
63201;SDS011;49296;48.188;11.566;2023-01-19T08:01:55;22.02;;;12.27;;
63201;SDS011;49296;48.188;11.566;2023-01-19T08:04:23;19.25;;;12.32;;
63201;SDS011;49296;48.188;11.566;2023-01-19T08:06:53;20.70;;;10.93;;
63201;SDS011;49296;48.188;11.566;2023-01-19T08:09:21;20.90;;;11.02;;
63201;SDS011;49296;48.188;11.566;2023-01-19T08:11:48;23.60;;;12.52;;
63201;SDS011;49296;48.188;11.566;2023-01-19T08:14:15;20.38;;;11.43;;
63201;SDS011;49296;48.188;11.566;2023-01-19T08:16:41;21.52;;;11.98;;
63201;SDS011;49296;48.188;11.566;2023-01-19T08:19:09;18.70;;;11.00;;
63201;SDS011;49296;48.188;11.566;2023-01-19T08:21:36;19.52;;;11.70;;
63201;SDS011;49296;48.188;11.566;2023-01-19T08:24:03;20.23;;;11.88;;
63201;SDS011;49296;48.188;11.566;2023-01-19T08:26:31;21.20;;;11.13;;
63201;SDS011;49296;48.188;11.566;2023-01-19T08:29:00;19.98;;;11.57;;
63201;SDS011;49296;48.188;11.566;2023-01-19T08:31:29;17.77;;;10.75;;
63201;SDS011;49296;48.188;11.566;2023-01-19T08:33:56;23.25;;;12.23;;
63201;SDS011;49296;48.188;11.566;2023-01-19T08:36:25;20.10;;;11.23;;
63201;SDS011;49296;48.188;11.566;2023-01-19T08:38:52;18.08;;;10.63;;
63201;SDS011;49296;48.188;11.566;2023-01-19T08:41:19;20.85;;;11.93;;
63201;SDS011;49296;48.188;11.566;2023-01-19T08:43:46;19.58;;;10.77;;
63201;SDS011;49296;48.188;11.566;2023-01-19T08:46:13;18.50;;;10.13;;
63201;SDS011;49296;48.188;11.566;2023-01-19T08:48:42;18.05;;;10.40;;
63201;SDS011;49296;48.188;11.566;2023-01-19T08:51:09;20.70;;;11.25;;
63201;SDS011;49296;48.188;11.566;2023-01-19T08:53:38;20.23;;;11.05;;
63201;SDS011;49296;48.188;11.566;2023-01-19T08:56:06;19.10;;;10.98;;
63201;SDS011;49296;48.188;11.566;2023-01-19T08:58:39;18.20;;;10.82;;
63201;SDS011;49296;48.188;11.566;2023-01-19T09:01:07;20.10;;;11.38;;
63201;SDS011;49296;48.188;11.566;2023-01-19T09:03:34;20.75;;;11.18;;
63201;SDS011;49296;48.188;11.566;2023-01-19T09:06:04;18.95;;;11.02;;
63201;SDS011;49296;48.188;11.566;2023-01-19T09:08:30;21.23;;;11.27;;
63201;SDS011;49296;48.188;11.566;2023-01-19T09:10:59;22.13;;;11.23;;
63201;SDS011;49296;48.188;11.566;2023-01-19T09:13:25;20.70;;;11.40;;
63201;SDS011;49296;48.188;11.566;2023-01-19T09:15:52;17.23;;;10.80;;
63201;SDS011;49296;48.188;11.566;2023-01-19T09:18:20;22.17;;;12.05;;
63201;SDS011;49296;48.188;11.566;2023-01-19T09:20:48;21.73;;;10.60;;
63201;SDS011;49296;48.188;11.566;2023-01-19T09:23:16;20.55;;;11.70;;
63201;SDS011;49296;48.188;11.566;2023-01-19T09:25:44;19.23;;;10.77;;
63201;SDS011;49296;48.188;11.566;2023-01-19T09:28:14;18.13;;;11.18;;
63201;SDS011;49296;48.188;11.566;2023-01-19T09:30:42;19.58;;;10.55;;
63201;SDS011;49296;48.188;11.566;2023-01-19T09:33:09;19.73;;;10.25;;
63201;SDS011;49296;48.188;11.566;2023-01-19T09:35:39;21.35;;;11.52;;
63201;SDS011;49296;48.188;11.566;2023-01-19T09:38:06;17.65;;;10.10;;
63201;SDS011;49296;48.188;11.566;2023-01-19T09:40:35;17.80;;;10.57;;
63201;SDS011;49296;48.188;11.566;2023-01-19T09:43:11;21.20;;;11.25;;
63201;SDS011;49296;48.188;11.566;2023-01-19T09:45:42;19.45;;;10.65;;
63201;SDS011;49296;48.188;11.566;2023-01-19T09:48:18;21.20;;;11.15;;
63201;SDS011;49296;48.188;11.566;2023-01-19T09:50:51;19.83;;;10.18;;
63201;SDS011;49296;48.188;11.566;2023-01-19T09:53:22;17.35;;;10.05;;
63201;SDS011;49296;48.188;11.566;2023-01-19T09:55:58;18.40;;;10.77;;
63201;SDS011;49296;48.188;11.566;2023-01-19T09:58:25;17.30;;;10.05;;
63201;SDS011;49296;48.188;11.566;2023-01-19T10:00:55;19.90;;;10.70;;
63201;SDS011;49296;48.188;11.566;2023-01-19T10:03:28;15.88;;;9.02;;
63201;SDS011;49296;48.188;11.566;2023-01-19T10:05:56;18.63;;;10.07;;
63201;SDS011;49296;48.188;11.566;2023-01-19T10:08:28;15.88;;;8.45;;
63201;SDS011;49296;48.188;11.566;2023-01-19T10:11:01;17.45;;;9.50;;
63201;SDS011;49296;48.188;11.566;2023-01-19T10:13:33;16.90;;;10.00;;
63201;SDS011;49296;48.188;11.566;2023-01-19T10:16:11;19.63;;;9.45;;
63201;SDS011;49296;48.188;11.566;2023-01-19T10:18:47;16.92;;;8.63;;
63201;SDS011;49296;48.188;11.566;2023-01-19T10:21:17;18.05;;;8.50;;
63201;SDS011;49296;48.188;11.566;2023-01-19T10:23:47;18.83;;;9.98;;
63201;SDS011;49296;48.188;11.566;2023-01-19T10:26:16;16.38;;;8.75;;
63201;SDS011;49296;48.188;11.566;2023-01-19T10:28:48;13.65;;;8.13;;
63201;SDS011;49296;48.188;11.566;2023-01-19T10:31:20;14.18;;;7.95;;
63201;SDS011;49296;48.188;11.566;2023-01-19T10:33:49;17.65;;;9.15;;
63201;SDS011;49296;48.188;11.566;2023-01-19T10:36:17;15.93;;;9.38;;
63201;SDS011;49296;48.188;11.566;2023-01-19T10:38:45;18.08;;;8.77;;
63201;SDS011;49296;48.188;11.566;2023-01-19T10:41:14;13.48;;;8.23;;
63201;SDS011;49296;48.188;11.566;2023-01-19T10:43:45;16.10;;;8.55;;
63201;SDS011;49296;48.188;11.566;2023-01-19T10:46:21;14.68;;;8.50;;
63201;SDS011;49296;48.188;11.566;2023-01-19T10:48:52;16.98;;;8.82;;
63201;SDS011;49296;48.188;11.566;2023-01-19T10:51:20;13.38;;;8.65;;
63201;SDS011;49296;48.188;11.566;2023-01-19T10:53:55;16.63;;;8.00;;
63201;SDS011;49296;48.188;11.566;2023-01-19T10:56:24;13.60;;;7.53;;
63201;SDS011;49296;48.188;11.566;2023-01-19T11:01:23;12.90;;;7.60;;
63201;SDS011;49296;48.188;11.566;2023-01-19T11:03:52;15.65;;;8.95;;
63201;SDS011;49296;48.188;11.566;2023-01-19T11:06:22;14.93;;;7.50;;
63201;SDS011;49296;48.188;11.566;2023-01-19T11:09:08;16.10;;;8.68;;
63201;SDS011;49296;48.188;11.566;2023-01-19T11:11:41;14.13;;;7.43;;
63201;SDS011;49296;48.188;11.566;2023-01-19T11:14:12;12.60;;;8.00;;
63201;SDS011;49296;48.188;11.566;2023-01-19T11:16:45;13.43;;;7.47;;
63201;SDS011;49296;48.188;11.566;2023-01-19T11:19:16;16.83;;;8.32;;
63201;SDS011;49296;48.188;11.566;2023-01-19T11:21:47;14.88;;;7.85;;
63201;SDS011;49296;48.188;11.566;2023-01-19T11:24:14;15.30;;;8.27;;
63201;SDS011;49296;48.188;11.566;2023-01-19T11:26:42;13.40;;;7.30;;
63201;SDS011;49296;48.188;11.566;2023-01-19T11:29:14;14.23;;;7.70;;
63201;SDS011;49296;48.188;11.566;2023-01-19T11:31:45;14.18;;;6.60;;
63201;SDS011;49296;48.188;11.566;2023-01-19T11:34:22;9.85;;;6.00;;
63201;SDS011;49296;48.188;11.566;2023-01-19T11:36:55;12.43;;;6.20;;
63201;SDS011;49296;48.188;11.566;2023-01-19T11:39:23;11.40;;;5.60;;
63201;SDS011;49296;48.188;11.566;2023-01-19T11:41:53;10.57;;;5.60;;
63201;SDS011;49296;48.188;11.566;2023-01-19T11:44:22;11.35;;;6.07;;
63201;SDS011;49296;48.188;11.566;2023-01-19T11:46:54;15.13;;;6.25;;
63201;SDS011;49296;48.188;11.566;2023-01-19T11:49:25;12.60;;;5.60;;
63201;SDS011;49296;48.188;11.566;2023-01-19T11:51:57;12.73;;;6.43;;
63201;SDS011;49296;48.188;11.566;2023-01-19T11:54:31;9.73;;;5.07;;
63201;SDS011;49296;48.188;11.566;2023-01-19T11:57:00;9.05;;;4.68;;
63201;SDS011;49296;48.188;11.566;2023-01-19T11:59:35;10.68;;;5.65;;
63201;SDS011;49296;48.188;11.566;2023-01-19T12:02:03;10.23;;;5.22;;
63201;SDS011;49296;48.188;11.566;2023-01-19T12:04:42;10.10;;;5.05;;
63201;SDS011;49296;48.188;11.566;2023-01-19T12:07:12;11.10;;;5.40;;
63201;SDS011;49296;48.188;11.566;2023-01-19T12:12:12;11.15;;;5.93;;
63201;SDS011;49296;48.188;11.566;2023-01-19T12:14:49;11.00;;;5.88;;
63201;SDS011;49296;48.188;11.566;2023-01-19T12:17:23;14.10;;;6.20;;
63201;SDS011;49296;48.188;11.566;2023-01-19T12:19:53;11.25;;;6.45;;
63201;SDS011;49296;48.188;11.566;2023-01-19T12:22:25;12.02;;;6.22;;
63201;SDS011;49296;48.188;11.566;2023-01-19T12:24:55;10.00;;;6.40;;
63201;SDS011;49296;48.188;11.566;2023-01-19T12:27:32;14.88;;;6.28;;
63201;SDS011;49296;48.188;11.566;2023-01-19T12:30:08;9.52;;;5.22;;
63201;SDS011;49296;48.188;11.566;2023-01-19T12:32:47;10.93;;;6.20;;
63201;SDS011;49296;48.188;11.566;2023-01-19T12:41:20;10.25;;;5.93;;
63201;SDS011;49296;48.188;11.566;2023-01-19T12:46:45;11.40;;;5.63;;
63201;SDS011;49296;48.188;11.566;2023-01-19T12:49:20;9.07;;;5.50;;
63201;SDS011;49296;48.188;11.566;2023-01-19T12:51:54;11.90;;;4.93;;
63201;SDS011;49296;48.188;11.566;2023-01-19T12:54:55;9.95;;;5.00;;
63201;SDS011;49296;48.188;11.566;2023-01-19T12:57:26;10.70;;;4.82;;
63201;SDS011;49296;48.188;11.566;2023-01-19T12:59:57;12.65;;;5.70;;
63201;SDS011;49296;48.188;11.566;2023-01-19T13:05:16;12.52;;;5.53;;
63201;SDS011;49296;48.188;11.566;2023-01-19T13:08:14;10.77;;;5.22;;
63201;SDS011;49296;48.188;11.566;2023-01-19T13:10:52;11.55;;;5.90;;
63201;SDS011;49296;48.188;11.566;2023-01-19T13:13:21;11.82;;;5.93;;
63201;SDS011;49296;48.188;11.566;2023-01-19T13:15:49;9.90;;;6.05;;
63201;SDS011;49296;48.188;11.566;2023-01-19T13:18:16;9.85;;;5.75;;
63201;SDS011;49296;48.188;11.566;2023-01-19T13:20:47;11.60;;;6.38;;
63201;SDS011;49296;48.188;11.566;2023-01-19T13:23:20;11.73;;;6.57;;
63201;SDS011;49296;48.188;11.566;2023-01-19T13:28:39;12.65;;;6.03;;
63201;SDS011;49296;48.188;11.566;2023-01-19T13:31:08;11.80;;;6.22;;
63201;SDS011;49296;48.188;11.566;2023-01-19T13:33:37;10.15;;;5.90;;
63201;SDS011;49296;48.188;11.566;2023-01-19T13:36:19;9.45;;;5.07;;
63201;SDS011;49296;48.188;11.566;2023-01-19T13:38:50;10.18;;;6.32;;
63201;SDS011;49296;48.188;11.566;2023-01-19T13:41:19;12.93;;;5.93;;
63201;SDS011;49296;48.188;11.566;2023-01-19T13:43:50;11.40;;;5.60;;
63201;SDS011;49296;48.188;11.566;2023-01-19T13:46:22;9.13;;;4.35;;
63201;SDS011;49296;48.188;11.566;2023-01-19T13:48:51;11.20;;;5.57;;
63201;SDS011;49296;48.188;11.566;2023-01-19T13:51:21;10.25;;;4.55;;
63201;SDS011;49296;48.188;11.566;2023-01-19T13:53:52;8.73;;;4.20;;
63201;SDS011;49296;48.188;11.566;2023-01-19T13:56:20;8.38;;;3.97;;
63201;SDS011;49296;48.188;11.566;2023-01-19T13:59:01;7.53;;;3.45;;
63201;SDS011;49296;48.188;11.566;2023-01-19T14:01:34;8.05;;;4.07;;
63201;SDS011;49296;48.188;11.566;2023-01-19T14:04:01;9.02;;;3.50;;
63201;SDS011;49296;48.188;11.566;2023-01-19T14:06:31;7.53;;;3.55;;
63201;SDS011;49296;48.188;11.566;2023-01-19T14:09:05;9.25;;;3.63;;
63201;SDS011;49296;48.188;11.566;2023-01-19T14:11:43;6.50;;;3.05;;
63201;SDS011;49296;48.188;11.566;2023-01-19T14:14:20;8.55;;;4.10;;
63201;SDS011;49296;48.188;11.566;2023-01-19T14:16:50;6.70;;;3.37;;
63201;SDS011;49296;48.188;11.566;2023-01-19T14:19:17;6.72;;;3.53;;
63201;SDS011;49296;48.188;11.566;2023-01-19T14:21:45;7.22;;;3.38;;
63201;SDS011;49296;48.188;11.566;2023-01-19T14:24:23;6.75;;;3.08;;
63201;SDS011;49296;48.188;11.566;2023-01-19T14:26:53;7.70;;;3.65;;
63201;SDS011;49296;48.188;11.566;2023-01-19T14:29:34;7.72;;;3.95;;
63201;SDS011;49296;48.188;11.566;2023-01-19T14:32:04;8.05;;;4.13;;
63201;SDS011;49296;48.188;11.566;2023-01-19T14:34:41;7.88;;;4.28;;
63201;SDS011;49296;48.188;11.566;2023-01-19T14:37:15;9.82;;;4.30;;
63201;SDS011;49296;48.188;11.566;2023-01-19T14:39:45;8.75;;;4.88;;
63201;SDS011;49296;48.188;11.566;2023-01-19T14:42:15;8.32;;;4.47;;
63201;SDS011;49296;48.188;11.566;2023-01-19T14:47:20;9.02;;;4.15;;
63201;SDS011;49296;48.188;11.566;2023-01-19T14:49:51;7.68;;;4.22;;
63201;SDS011;49296;48.188;11.566;2023-01-19T14:52:23;9.65;;;4.78;;
63201;SDS011;49296;48.188;11.566;2023-01-19T14:54:51;8.60;;;4.20;;
63201;SDS011;49296;48.188;11.566;2023-01-19T14:57:20;6.30;;;3.25;;
63201;SDS011;49296;48.188;11.566;2023-01-19T14:59:46;7.15;;;3.50;;